sensor_id;sensor_type;location;lat;lon;timestamp;pressure;altitude;pressure_sealevel;temperature;humidity
7026;BME280;3554;42.132;24.786;2023-06-24T00:02:16;99280.59;;;23.24;100.00
7026;BME280;3554;42.132;24.786;2023-06-24T00:04:43;99286.94;;;23.32;100.00
7026;BME280;3554;42.132;24.786;2023-06-24T00:07:09;99289.16;;;23.18;100.00
7026;BME280;3554;42.132;24.786;2023-06-24T00:09:37;99282.16;;;23.17;100.00
7026;BME280;3554;42.132;24.786;2023-06-24T00:12:06;99276.00;;;22.97;100.00
7026;BME280;3554;42.132;24.786;2023-06-24T00:14:33;99271.22;;;23.01;100.00
7026;BME280;3554;42.132;24.786;2023-06-24T00:17:02;99276.69;;;22.99;100.00
7026;BME280;3554;42.132;24.786;2023-06-24T00:19:30;99273.75;;;22.93;100.00
7026;BME280;3554;42.132;24.786;2023-06-24T00:21:57;99277.41;;;22.92;100.00
7026;BME280;3554;42.132;24.786;2023-06-24T00:24:26;99276.03;;;22.78;100.00
7026;BME280;3554;42.132;24.786;2023-06-24T00:26:55;99261.81;;;22.87;100.00
7026;BME280;3554;42.132;24.786;2023-06-24T00:29:22;99267.13;;;22.97;100.00
7026;BME280;3554;42.132;24.786;2023-06-24T00:31:49;99279.22;;;23.01;100.00
7026;BME280;3554;42.132;24.786;2023-06-24T00:34:15;99275.44;;;22.94;100.00
7026;BME280;3554;42.132;24.786;2023-06-24T00:36:45;99276.16;;;22.86;100.00
7026;BME280;3554;42.132;24.786;2023-06-24T00:39:12;99256.06;;;22.73;100.00
7026;BME280;3554;42.132;24.786;2023-06-24T00:41:39;99276.28;;;22.75;100.00
7026;BME280;3554;42.132;24.786;2023-06-24T00:44:07;99261.94;;;22.86;100.00
7026;BME280;3554;42.132;24.786;2023-06-24T00:46:35;99265.75;;;22.74;100.00
7026;BME280;3554;42.132;24.786;2023-06-24T00:49:02;99268.00;;;22.78;100.00
7026;BME280;3554;42.132;24.786;2023-06-24T00:51:29;99259.56;;;22.73;100.00
7026;BME280;3554;42.132;24.786;2023-06-24T00:53:56;99255.34;;;22.52;100.00
7026;BME280;3554;42.132;24.786;2023-06-24T00:56:28;99246.34;;;22.53;100.00
7026;BME280;3554;42.132;24.786;2023-06-24T00:58:57;99245.50;;;22.43;100.00
7026;BME280;3554;42.132;24.786;2023-06-24T01:01:26;99244.94;;;22.29;100.00
7026;BME280;3554;42.132;24.786;2023-06-24T01:03:53;99250.41;;;22.28;100.00
7026;BME280;3554;42.132;24.786;2023-06-24T01:06:20;99235.09;;;22.20;100.00
7026;BME280;3554;42.132;24.786;2023-06-24T01:08:47;99221.41;;;21.85;100.00
7026;BME280;3554;42.132;24.786;2023-06-24T01:11:16;99236.88;;;22.01;100.00
7026;BME280;3554;42.132;24.786;2023-06-24T01:13:43;99242.63;;;21.96;100.00
7026;BME280;3554;42.132;24.786;2023-06-24T01:16:13;99213.69;;;21.82;100.00
7026;BME280;3554;42.132;24.786;2023-06-24T01:18:48;99221.16;;;21.98;100.00
7026;BME280;3554;42.132;24.786;2023-06-24T01:21:31;99239.81;;;21.98;100.00
7026;BME280;3554;42.132;24.786;2023-06-24T01:24:17;99224.22;;;21.93;100.00
7026;BME280;3554;42.132;24.786;2023-06-24T01:27:24;99219.47;;;21.87;100.00
7026;BME280;3554;42.132;24.786;2023-06-24T01:30:11;99225.94;;;21.94;100.00
7026;BME280;3554;42.132;24.786;2023-06-24T01:32:45;99225.34;;;22.00;100.00
7026;BME280;3554;42.132;24.786;2023-06-24T01:35:17;99222.13;;;21.87;100.00
7026;BME280;3554;42.132;24.786;2023-06-24T01:37:48;99212.63;;;21.74;100.00
7026;BME280;3554;42.132;24.786;2023-06-24T01:40:22;99222.47;;;21.73;100.00
7026;BME280;3554;42.132;24.786;2023-06-24T01:42:52;99228.91;;;21.71;100.00
7026;BME280;3554;42.132;24.786;2023-06-24T01:45:22;99225.91;;;21.55;100.00
7026;BME280;3554;42.132;24.786;2023-06-24T01:47:57;99193.88;;;21.36;100.00
7026;BME280;3554;42.132;24.786;2023-06-24T01:50:27;99243.97;;;21.51;100.00
7026;BME280;3554;42.132;24.786;2023-06-24T01:52:58;99245.13;;;21.58;100.00
7026;BME280;3554;42.132;24.786;2023-06-24T01:55:26;99228.50;;;21.45;100.00
7026;BME280;3554;42.132;24.786;2023-06-24T01:57:57;99241.25;;;21.42;100.00
7026;BME280;3554;42.132;24.786;2023-06-24T02:00:24;99242.69;;;21.46;100.00
7026;BME280;3554;42.132;24.786;2023-06-24T02:02:54;99252.81;;;21.52;100.00
7026;BME280;3554;42.132;24.786;2023-06-24T02:05:22;99248.63;;;21.59;100.00
7026;BME280;3554;42.132;24.786;2023-06-24T02:07:52;99245.66;;;21.52;100.00
7026;BME280;3554;42.132;24.786;2023-06-24T02:10:20;99256.84;;;21.46;100.00
7026;BME280;3554;42.132;24.786;2023-06-24T02:12:50;99245.88;;;21.40;100.00
7026;BME280;3554;42.132;24.786;2023-06-24T02:15:19;99250.53;;;21.47;100.00
7026;BME280;3554;42.132;24.786;2023-06-24T02:17:48;99263.34;;;21.33;100.00
7026;BME280;3554;42.132;24.786;2023-06-24T02:20:19;99261.53;;;21.33;100.00
7026;BME280;3554;42.132;24.786;2023-06-24T02:22:47;99264.25;;;21.12;100.00
7026;BME280;3554;42.132;24.786;2023-06-24T02:25:14;99267.94;;;21.21;100.00
7026;BME280;3554;42.132;24.786;2023-06-24T02:27:41;99264.03;;;21.25;100.00
7026;BME280;3554;42.132;24.786;2023-06-24T02:30:10;99280.75;;;20.95;100.00
7026;BME280;3554;42.132;24.786;2023-06-24T02:32:37;99290.41;;;21.07;100.00
7026;BME280;3554;42.132;24.786;2023-06-24T02:35:05;99286.06;;;20.95;100.00
7026;BME280;3554;42.132;24.786;2023-06-24T02:37:34;99294.16;;;21.05;100.00
7026;BME280;3554;42.132;24.786;2023-06-24T02:40:01;99302.59;;;21.10;100.00
7026;BME280;3554;42.132;24.786;2023-06-24T02:42:29;99296.59;;;20.97;100.00
7026;BME280;3554;42.132;24.786;2023-06-24T02:44:56;99296.00;;;20.93;100.00
7026;BME280;3554;42.132;24.786;2023-06-24T02:47:24;99303.78;;;20.85;100.00
7026;BME280;3554;42.132;24.786;2023-06-24T02:49:51;99273.97;;;20.71;100.00
7026;BME280;3554;42.132;24.786;2023-06-24T02:52:20;99304.47;;;20.98;100.00
7026;BME280;3554;42.132;24.786;2023-06-24T02:54:49;99310.16;;;20.94;100.00
7026;BME280;3554;42.132;24.786;2023-06-24T02:57:16;99307.22;;;21.08;100.00
7026;BME280;3554;42.132;24.786;2023-06-24T02:59:45;99308.91;;;21.09;100.00
7026;BME280;3554;42.132;24.786;2023-06-24T03:02:13;99311.03;;;21.15;100.00
7026;BME280;3554;42.132;24.786;2023-06-24T03:04:42;99314.50;;;21.26;100.00
7026;BME280;3554;42.132;24.786;2023-06-24T03:07:10;99311.88;;;21.36;100.00
7026;BME280;3554;42.132;24.786;2023-06-24T03:09:37;99299.47;;;21.46;100.00
7026;BME280;3554;42.132;24.786;2023-06-24T03:12:07;99285.94;;;21.28;100.00
7026;BME280;3554;42.132;24.786;2023-06-24T03:14:34;99305.75;;;21.45;100.00
7026;BME280;3554;42.132;24.786;2023-06-24T03:17:01;99297.16;;;21.32;100.00
7026;BME280;3554;42.132;24.786;2023-06-24T03:19:28;99295.31;;;21.33;100.00
7026;BME280;3554;42.132;24.786;2023-06-24T03:21:55;99299.03;;;21.20;100.00
7026;BME280;3554;42.132;24.786;2023-06-24T03:24:22;99294.88;;;21.48;100.00
7026;BME280;3554;42.132;24.786;2023-06-24T03:26:48;99301.81;;;21.90;100.00
7026;BME280;3554;42.132;24.786;2023-06-24T03:29:23;99300.66;;;22.23;100.00
7026;BME280;3554;42.132;24.786;2023-06-24T03:31:50;99301.25;;;22.46;100.00
7026;BME280;3554;42.132;24.786;2023-06-24T03:34:17;99294.69;;;22.69;100.00
7026;BME280;3554;42.132;24.786;2023-06-24T03:36:44;99304.50;;;22.97;100.00
7026;BME280;3554;42.132;24.786;2023-06-24T03:39:10;99311.13;;;23.31;100.00
7026;BME280;3554;42.132;24.786;2023-06-24T03:41:37;99308.25;;;23.52;100.00
7026;BME280;3554;42.132;24.786;2023-06-24T03:44:05;99315.13;;;23.91;100.00
7026;BME280;3554;42.132;24.786;2023-06-24T03:46:33;99310.28;;;24.13;100.00
7026;BME280;3554;42.132;24.786;2023-06-24T03:49:00;99305.09;;;24.12;100.00
7026;BME280;3554;42.132;24.786;2023-06-24T03:51:27;99307.94;;;24.28;100.00
7026;BME280;3554;42.132;24.786;2023-06-24T03:53:54;99305.91;;;24.39;100.00
7026;BME280;3554;42.132;24.786;2023-06-24T03:56:20;99306.25;;;24.27;100.00
7026;BME280;3554;42.132;24.786;2023-06-24T03:58:47;99313.00;;;24.31;100.00
7026;BME280;3554;42.132;24.786;2023-06-24T04:01:14;99313.22;;;24.20;100.00
7026;BME280;3554;42.132;24.786;2023-06-24T04:03:46;99306.38;;;24.35;100.00
7026;BME280;3554;42.132;24.786;2023-06-24T04:06:13;99324.28;;;24.25;100.00
7026;BME280;3554;42.132;24.786;2023-06-24T04:08:39;99317.53;;;24.48;100.00
7026;BME280;3554;42.132;24.786;2023-06-24T04:11:09;99311.72;;;24.35;100.00
7026;BME280;3554;42.132;24.786;2023-06-24T04:13:37;99306.22;;;24.36;100.00
7026;BME280;3554;42.132;24.786;2023-06-24T04:16:04;99312.66;;;24.61;100.00
7026;BME280;3554;42.132;24.786;2023-06-24T04:18:31;99306.28;;;24.72;100.00
7026;BME280;3554;42.132;24.786;2023-06-24T04:20:59;99319.44;;;24.83;100.00
7026;BME280;3554;42.132;24.786;2023-06-24T04:23:26;99322.97;;;25.26;100.00
7026;BME280;3554;42.132;24.786;2023-06-24T04:25:52;99337.00;;;25.03;100.00
7026;BME280;3554;42.132;24.786;2023-06-24T04:28:19;99332.34;;;25.66;100.00
7026;BME280;3554;42.132;24.786;2023-06-24T04:30:46;99334.69;;;25.69;100.00
7026;BME280;3554;42.132;24.786;2023-06-24T04:33:13;99341.25;;;25.74;100.00
7026;BME280;3554;42.132;24.786;2023-06-24T04:35:39;99343.72;;;25.60;100.00
7026;BME280;3554;42.132;24.786;2023-06-24T04:38:07;99342.59;;;25.70;100.00
7026;BME280;3554;42.132;24.786;2023-06-24T04:40:34;99320.72;;;25.57;100.00
7026;BME280;3554;42.132;24.786;2023-06-24T04:43:01;99352.38;;;25.79;100.00
7026;BME280;3554;42.132;24.786;2023-06-24T04:45:28;99344.34;;;25.79;100.00
7026;BME280;3554;42.132;24.786;2023-06-24T04:47:55;99353.19;;;25.80;100.00
7026;BME280;3554;42.132;24.786;2023-06-24T04:50:22;99363.16;;;26.13;100.00
7026;BME280;3554;42.132;24.786;2023-06-24T04:52:52;99371.31;;;26.37;100.00
7026;BME280;3554;42.132;24.786;2023-06-24T04:55:21;99382.09;;;26.45;100.00
7026;BME280;3554;42.132;24.786;2023-06-24T04:57:48;99354.44;;;26.61;100.00
7026;BME280;3554;42.132;24.786;2023-06-24T05:00:15;99381.56;;;26.99;100.00
7026;BME280;3554;42.132;24.786;2023-06-24T05:02:42;99372.84;;;27.13;100.00
7026;BME280;3554;42.132;24.786;2023-06-24T05:05:10;99379.06;;;27.22;100.00
7026;BME280;3554;42.132;24.786;2023-06-24T05:07:37;99380.09;;;27.21;100.00
7026;BME280;3554;42.132;24.786;2023-06-24T05:10:05;99381.66;;;27.39;100.00
7026;BME280;3554;42.132;24.786;2023-06-24T05:12:33;99384.97;;;27.58;100.00
7026;BME280;3554;42.132;24.786;2023-06-24T05:15:00;99389.19;;;27.76;100.00
7026;BME280;3554;42.132;24.786;2023-06-24T05:17:27;99387.47;;;27.75;100.00
7026;BME280;3554;42.132;24.786;2023-06-24T05:19:54;99396.88;;;28.19;100.00
7026;BME280;3554;42.132;24.786;2023-06-24T05:22:21;99395.38;;;28.09;100.00
7026;BME280;3554;42.132;24.786;2023-06-24T05:24:47;99396.22;;;28.01;100.00
7026;BME280;3554;42.132;24.786;2023-06-24T05:27:14;99393.38;;;27.95;100.00
7026;BME280;3554;42.132;24.786;2023-06-24T05:29:42;99386.00;;;27.48;100.00
7026;BME280;3554;42.132;24.786;2023-06-24T05:32:09;99396.25;;;27.45;100.00
7026;BME280;3554;42.132;24.786;2023-06-24T05:34:36;99388.53;;;27.58;100.00
7026;BME280;3554;42.132;24.786;2023-06-24T05:37:03;99384.50;;;27.38;100.00
7026;BME280;3554;42.132;24.786;2023-06-24T05:39:31;99390.38;;;27.41;100.00
7026;BME280;3554;42.132;24.786;2023-06-24T05:41:58;99401.16;;;27.50;100.00
7026;BME280;3554;42.132;24.786;2023-06-24T05:44:24;99396.09;;;26.65;100.00
7026;BME280;3554;42.132;24.786;2023-06-24T05:46:53;99394.69;;;27.18;100.00
7026;BME280;3554;42.132;24.786;2023-06-24T05:49:19;99403.50;;;27.61;100.00
7026;BME280;3554;42.132;24.786;2023-06-24T05:51:46;99396.88;;;28.19;100.00
7026;BME280;3554;42.132;24.786;2023-06-24T05:54:13;99402.13;;;27.81;100.00
7026;BME280;3554;42.132;24.786;2023-06-24T05:56:40;99394.53;;;28.08;100.00
7026;BME280;3554;42.132;24.786;2023-06-24T05:59:07;99392.19;;;27.81;100.00
7026;BME280;3554;42.132;24.786;2023-06-24T06:01:34;99390.50;;;27.16;100.00
7026;BME280;3554;42.132;24.786;2023-06-24T06:04:02;99398.78;;;27.55;100.00
7026;BME280;3554;42.132;24.786;2023-06-24T06:06:29;99400.22;;;27.01;100.00
7026;BME280;3554;42.132;24.786;2023-06-24T06:08:56;99392.66;;;26.96;100.00
7026;BME280;3554;42.132;24.786;2023-06-24T06:11:22;99392.06;;;27.75;100.00
7026;BME280;3554;42.132;24.786;2023-06-24T06:13:49;99390.88;;;27.69;100.00
7026;BME280;3554;42.132;24.786;2023-06-24T06:16:17;99378.91;;;27.96;100.00
7026;BME280;3554;42.132;24.786;2023-06-24T06:18:44;99391.84;;;28.47;100.00
7026;BME280;3554;42.132;24.786;2023-06-24T06:21:12;99387.47;;;28.54;100.00
7026;BME280;3554;42.132;24.786;2023-06-24T06:23:39;99381.25;;;27.83;100.00
7026;BME280;3554;42.132;24.786;2023-06-24T06:26:06;99376.88;;;28.61;100.00
7026;BME280;3554;42.132;24.786;2023-06-24T06:28:33;99375.94;;;28.99;100.00
7026;BME280;3554;42.132;24.786;2023-06-24T06:30:59;99368.72;;;29.22;100.00
7026;BME280;3554;42.132;24.786;2023-06-24T06:33:26;99373.59;;;29.26;100.00
7026;BME280;3554;42.132;24.786;2023-06-24T06:35:53;99374.78;;;28.24;100.00
7026;BME280;3554;42.132;24.786;2023-06-24T06:38:21;99367.66;;;28.39;100.00
7026;BME280;3554;42.132;24.786;2023-06-24T06:40:49;99363.59;;;29.04;100.00
7026;BME280;3554;42.132;24.786;2023-06-24T06:43:15;99367.25;;;29.57;100.00
7026;BME280;3554;42.132;24.786;2023-06-24T06:45:42;99333.25;;;29.33;100.00
7026;BME280;3554;42.132;24.786;2023-06-24T06:48:09;99366.41;;;28.19;100.00
7026;BME280;3554;42.132;24.786;2023-06-24T06:50:36;99364.13;;;27.76;100.00
7026;BME280;3554;42.132;24.786;2023-06-24T06:53:02;99363.81;;;27.79;100.00
7026;BME280;3554;42.132;24.786;2023-06-24T06:55:31;99354.00;;;28.02;100.00
7026;BME280;3554;42.132;24.786;2023-06-24T06:57:57;99362.16;;;28.94;100.00
7026;BME280;3554;42.132;24.786;2023-06-24T07:00:24;99355.59;;;29.41;100.00
7026;BME280;3554;42.132;24.786;2023-06-24T07:03:08;99363.56;;;29.35;100.00
7026;BME280;3554;42.132;24.786;2023-06-24T07:05:35;99359.06;;;29.05;100.00
7026;BME280;3554;42.132;24.786;2023-06-24T07:08:02;99361.41;;;28.77;100.00
7026;BME280;3554;42.132;24.786;2023-06-24T07:10:31;99343.03;;;28.58;100.00
7026;BME280;3554;42.132;24.786;2023-06-24T07:12:57;99346.84;;;28.94;100.00
7026;BME280;3554;42.132;24.786;2023-06-24T07:15:25;99342.09;;;29.41;100.00
7026;BME280;3554;42.132;24.786;2023-06-24T07:17:52;99334.19;;;29.92;100.00
7026;BME280;3554;42.132;24.786;2023-06-24T07:20:19;99344.69;;;30.16;100.00
7026;BME280;3554;42.132;24.786;2023-06-24T07:22:46;99348.31;;;28.74;100.00
7026;BME280;3554;42.132;24.786;2023-06-24T07:25:13;99345.94;;;28.02;100.00
7026;BME280;3554;42.132;24.786;2023-06-24T07:27:41;99345.81;;;28.73;100.00
7026;BME280;3554;42.132;24.786;2023-06-24T07:30:08;99343.59;;;27.83;100.00
7026;BME280;3554;42.132;24.786;2023-06-24T07:32:35;99337.19;;;28.00;100.00
7026;BME280;3554;42.132;24.786;2023-06-24T07:35:03;99336.81;;;29.03;100.00
7026;BME280;3554;42.132;24.786;2023-06-24T07:37:29;99352.31;;;29.69;100.00
7026;BME280;3554;42.132;24.786;2023-06-24T07:39:56;99351.59;;;29.15;100.00
7026;BME280;3554;42.132;24.786;2023-06-24T07:42:23;99343.22;;;29.47;100.00
7026;BME280;3554;42.132;24.786;2023-06-24T07:44:51;99337.88;;;29.62;100.00
7026;BME280;3554;42.132;24.786;2023-06-24T07:47:18;99348.34;;;29.19;100.00
7026;BME280;3554;42.132;24.786;2023-06-24T07:49:45;99336.63;;;29.49;100.00
7026;BME280;3554;42.132;24.786;2023-06-24T07:52:12;99353.00;;;29.85;100.00
7026;BME280;3554;42.132;24.786;2023-06-24T07:54:39;99358.88;;;29.66;100.00
7026;BME280;3554;42.132;24.786;2023-06-24T07:57:06;99352.22;;;29.77;100.00
7026;BME280;3554;42.132;24.786;2023-06-24T07:59:32;99350.66;;;29.97;100.00
7026;BME280;3554;42.132;24.786;2023-06-24T08:02:01;99350.31;;;30.29;100.00
7026;BME280;3554;42.132;24.786;2023-06-24T08:04:27;99351.59;;;30.18;100.00
7026;BME280;3554;42.132;24.786;2023-06-24T08:06:54;99360.41;;;29.31;100.00
7026;BME280;3554;42.132;24.786;2023-06-24T08:09:21;99351.75;;;28.60;100.00
7026;BME280;3554;42.132;24.786;2023-06-24T08:11:48;99357.16;;;28.60;100.00
7026;BME280;3554;42.132;24.786;2023-06-24T08:14:15;99353.44;;;29.14;100.00
7026;BME280;3554;42.132;24.786;2023-06-24T08:16:41;99357.53;;;29.70;100.00
7026;BME280;3554;42.132;24.786;2023-06-24T08:19:10;99362.44;;;29.29;100.00
7026;BME280;3554;42.132;24.786;2023-06-24T08:21:36;99350.97;;;29.05;100.00
7026;BME280;3554;42.132;24.786;2023-06-24T08:24:04;99350.72;;;28.69;100.00
7026;BME280;3554;42.132;24.786;2023-06-24T08:26:30;99354.00;;;28.79;100.00
7026;BME280;3554;42.132;24.786;2023-06-24T08:28:57;99360.63;;;28.99;100.00
7026;BME280;3554;42.132;24.786;2023-06-24T08:31:25;99341.72;;;28.77;100.00
7026;BME280;3554;42.132;24.786;2023-06-24T08:33:52;99355.44;;;28.90;100.00
7026;BME280;3554;42.132;24.786;2023-06-24T08:36:22;99355.88;;;29.46;100.00
7026;BME280;3554;42.132;24.786;2023-06-24T08:38:50;99350.38;;;30.21;100.00
7026;BME280;3554;42.132;24.786;2023-06-24T08:41:17;99355.22;;;30.11;100.00
7026;BME280;3554;42.132;24.786;2023-06-24T08:43:43;99352.19;;;30.28;100.00
7026;BME280;3554;42.132;24.786;2023-06-24T08:46:11;99350.50;;;30.42;100.00
7026;BME280;3554;42.132;24.786;2023-06-24T08:48:39;99347.59;;;30.14;100.00
7026;BME280;3554;42.132;24.786;2023-06-24T08:51:09;99345.28;;;29.97;100.00
7026;BME280;3554;42.132;24.786;2023-06-24T08:53:38;99338.66;;;30.14;100.00
7026;BME280;3554;42.132;24.786;2023-06-24T08:56:08;99345.19;;;29.53;100.00
7026;BME280;3554;42.132;24.786;2023-06-24T08:58:35;99346.94;;;29.83;100.00
7026;BME280;3554;42.132;24.786;2023-06-24T09:01:02;99327.50;;;30.02;100.00
7026;BME280;3554;42.132;24.786;2023-06-24T09:03:29;99352.75;;;30.38;100.00
7026;BME280;3554;42.132;24.786;2023-06-24T09:05:56;99351.00;;;30.81;100.00
7026;BME280;3554;42.132;24.786;2023-06-24T09:08:23;99356.69;;;31.07;100.00
7026;BME280;3554;42.132;24.786;2023-06-24T09:10:54;99345.91;;;31.14;100.00
7026;BME280;3554;42.132;24.786;2023-06-24T09:13:21;99336.69;;;30.87;100.00
7026;BME280;3554;42.132;24.786;2023-06-24T09:15:50;99337.75;;;30.86;100.00
7026;BME280;3554;42.132;24.786;2023-06-24T09:18:17;99337.53;;;31.09;100.00
7026;BME280;3554;42.132;24.786;2023-06-24T09:20:45;99336.97;;;31.13;100.00
7026;BME280;3554;42.132;24.786;2023-06-24T09:23:16;99343.97;;;31.29;100.00
7026;BME280;3554;42.132;24.786;2023-06-24T09:25:43;99336.44;;;31.45;100.00
7026;BME280;3554;42.132;24.786;2023-06-24T09:28:13;99331.66;;;31.26;100.00
7026;BME280;3554;42.132;24.786;2023-06-24T09:30:40;99326.56;;;31.59;100.00
7026;BME280;3554;42.132;24.786;2023-06-24T09:33:10;99287.28;;;31.21;98.42
7026;BME280;3554;42.132;24.786;2023-06-24T09:35:38;99318.19;;;31.54;100.00
7026;BME280;3554;42.132;24.786;2023-06-24T09:38:05;99325.19;;;31.70;100.00
7026;BME280;3554;42.132;24.786;2023-06-24T09:40:34;99315.06;;;31.50;100.00
7026;BME280;3554;42.132;24.786;2023-06-24T09:43:01;99309.66;;;31.29;100.00
7026;BME280;3554;42.132;24.786;2023-06-24T09:45:30;99299.34;;;31.39;100.00
7026;BME280;3554;42.132;24.786;2023-06-24T09:47:57;99297.00;;;31.58;100.00
7026;BME280;3554;42.132;24.786;2023-06-24T09:50:24;99284.34;;;31.65;100.00
7026;BME280;3554;42.132;24.786;2023-06-24T09:52:52;99230.72;;;31.26;100.00
7026;BME280;3554;42.132;24.786;2023-06-24T09:55:19;99273.75;;;31.42;100.00
7026;BME280;3554;42.132;24.786;2023-06-24T09:57:50;99271.50;;;31.24;100.00
7026;BME280;3554;42.132;24.786;2023-06-24T10:00:19;99266.78;;;31.05;100.00
7026;BME280;3554;42.132;24.786;2023-06-24T10:02:48;99255.47;;;30.95;100.00
7026;BME280;3554;42.132;24.786;2023-06-24T10:05:15;99256.16;;;31.04;100.00
7026;BME280;3554;42.132;24.786;2023-06-24T10:07:43;99271.63;;;31.10;100.00
7026;BME280;3554;42.132;24.786;2023-06-24T10:10:10;99270.50;;;30.83;100.00
7026;BME280;3554;42.132;24.786;2023-06-24T10:12:37;99252.59;;;31.03;100.00
7026;BME280;3554;42.132;24.786;2023-06-24T10:15:05;99218.03;;;30.99;100.00
7026;BME280;3554;42.132;24.786;2023-06-24T10:17:33;99252.28;;;31.40;100.00
7026;BME280;3554;42.132;24.786;2023-06-24T10:20:05;99241.13;;;31.50;100.00
7026;BME280;3554;42.132;24.786;2023-06-24T10:22:32;99245.88;;;31.41;100.00
7026;BME280;3554;42.132;24.786;2023-06-24T10:25:02;99248.69;;;31.61;100.00
7026;BME280;3554;42.132;24.786;2023-06-24T10:27:29;99250.88;;;31.79;100.00
7026;BME280;3554;42.132;24.786;2023-06-24T10:30:02;99150.56;;;31.18;99.88
7026;BME280;3554;42.132;24.786;2023-06-24T10:32:39;99236.19;;;31.60;100.00
7026;BME280;3554;42.132;24.786;2023-06-24T10:35:21;99239.75;;;32.01;100.00
7026;BME280;3554;42.132;24.786;2023-06-24T10:37:54;99242.97;;;32.24;100.00
7026;BME280;3554;42.132;24.786;2023-06-24T10:40:34;99247.72;;;32.09;98.35
7026;BME280;3554;42.132;24.786;2023-06-24T10:43:26;99230.91;;;32.27;99.16
7026;BME280;3554;42.132;24.786;2023-06-24T10:45:56;99230.91;;;32.33;99.78
7026;BME280;3554;42.132;24.786;2023-06-24T10:48:23;99221.84;;;32.54;100.00
7026;BME280;3554;42.132;24.786;2023-06-24T10:50:51;99214.44;;;32.28;100.00
7026;BME280;3554;42.132;24.786;2023-06-24T10:53:18;99221.06;;;32.13;100.00
7026;BME280;3554;42.132;24.786;2023-06-24T10:55:45;99218.06;;;31.95;100.00
7026;BME280;3554;42.132;24.786;2023-06-24T10:58:14;99211.03;;;32.07;100.00
7026;BME280;3554;42.132;24.786;2023-06-24T11:00:41;99199.63;;;32.18;100.00
7026;BME280;3554;42.132;24.786;2023-06-24T11:03:10;99192.75;;;32.22;100.00
7026;BME280;3554;42.132;24.786;2023-06-24T11:05:38;99175.88;;;32.20;100.00
7026;BME280;3554;42.132;24.786;2023-06-24T11:08:07;99176.25;;;32.10;100.00
7026;BME280;3554;42.132;24.786;2023-06-24T11:10:42;99165.25;;;32.31;100.00
7026;BME280;3554;42.132;24.786;2023-06-24T11:13:10;99159.41;;;32.21;100.00
7026;BME280;3554;42.132;24.786;2023-06-24T11:15:38;99153.34;;;32.13;100.00
7026;BME280;3554;42.132;24.786;2023-06-24T11:18:07;99165.19;;;32.12;100.00
7026;BME280;3554;42.132;24.786;2023-06-24T11:20:36;99159.97;;;32.04;100.00
7026;BME280;3554;42.132;24.786;2023-06-24T11:23:08;99161.72;;;32.37;100.00
7026;BME280;3554;42.132;24.786;2023-06-24T11:25:39;99143.47;;;31.92;100.00
7026;BME280;3554;42.132;24.786;2023-06-24T11:28:13;99141.03;;;32.10;100.00
7026;BME280;3554;42.132;24.786;2023-06-24T11:30:40;99137.72;;;32.21;100.00
7026;BME280;3554;42.132;24.786;2023-06-24T11:33:06;99131.06;;;32.30;100.00
7026;BME280;3554;42.132;24.786;2023-06-24T11:35:33;99124.38;;;32.20;100.00
7026;BME280;3554;42.132;24.786;2023-06-24T11:38:01;99117.31;;;32.25;100.00
7026;BME280;3554;42.132;24.786;2023-06-24T11:40:31;99122.31;;;32.22;100.00
7026;BME280;3554;42.132;24.786;2023-06-24T11:43:00;99113.16;;;32.36;100.00
7026;BME280;3554;42.132;24.786;2023-06-24T11:45:27;99126.09;;;32.47;100.00
7026;BME280;3554;42.132;24.786;2023-06-24T11:48:01;99098.97;;;32.34;100.00
7026;BME280;3554;42.132;24.786;2023-06-24T11:50:30;99112.09;;;32.37;100.00
7026;BME280;3554;42.132;24.786;2023-06-24T11:52:57;99114.59;;;32.38;100.00
7026;BME280;3554;42.132;24.786;2023-06-24T11:55:25;99114.03;;;32.43;100.00
7026;BME280;3554;42.132;24.786;2023-06-24T11:57:58;99109.41;;;32.57;93.53
7026;BME280;3554;42.132;24.786;2023-06-24T12:00:27;99105.03;;;32.75;98.60
7026;BME280;3554;42.132;24.786;2023-06-24T12:02:56;99104.63;;;32.52;100.00
7026;BME280;3554;42.132;24.786;2023-06-24T12:05:24;99097.94;;;32.54;100.00
7026;BME280;3554;42.132;24.786;2023-06-24T12:08:01;99098.78;;;32.62;100.00
7026;BME280;3554;42.132;24.786;2023-06-24T12:10:29;99095.03;;;32.56;96.71
7026;BME280;3554;42.132;24.786;2023-06-24T12:12:59;99091.72;;;32.54;97.72
7026;BME280;3554;42.132;24.786;2023-06-24T12:15:27;99095.66;;;32.65;96.98
7026;BME280;3554;42.132;24.786;2023-06-24T12:17:54;99086.91;;;32.69;95.66
7026;BME280;3554;42.132;24.786;2023-06-24T12:20:21;99082.28;;;32.76;98.25
7026;BME280;3554;42.132;24.786;2023-06-24T12:22:48;99077.47;;;32.85;96.21
7026;BME280;3554;42.132;24.786;2023-06-24T12:25:16;99095.66;;;33.04;92.45
7026;BME280;3554;42.132;24.786;2023-06-24T12:27:44;99081.00;;;33.11;91.50
7026;BME280;3554;42.132;24.786;2023-06-24T12:30:13;99076.66;;;32.91;95.01
7026;BME280;3554;42.132;24.786;2023-06-24T12:32:41;99066.19;;;33.14;95.77
7026;BME280;3554;42.132;24.786;2023-06-24T12:35:09;99061.38;;;33.16;92.83
7026;BME280;3554;42.132;24.786;2023-06-24T12:37:36;99054.81;;;33.36;90.40
7026;BME280;3554;42.132;24.786;2023-06-24T12:40:03;99042.78;;;33.19;90.05
7026;BME280;3554;42.132;24.786;2023-06-24T12:42:30;99051.78;;;33.13;90.89
7026;BME280;3554;42.132;24.786;2023-06-24T12:44:57;99039.50;;;32.85;91.50
7026;BME280;3554;42.132;24.786;2023-06-24T12:47:25;99047.88;;;32.96;92.46
7026;BME280;3554;42.132;24.786;2023-06-24T12:49:52;99024.25;;;32.90;93.18
7026;BME280;3554;42.132;24.786;2023-06-24T12:52:19;98995.53;;;32.70;95.13
7026;BME280;3554;42.132;24.786;2023-06-24T12:54:46;99020.75;;;32.83;91.71
7026;BME280;3554;42.132;24.786;2023-06-24T12:57:14;99026.94;;;33.10;93.36
7026;BME280;3554;42.132;24.786;2023-06-24T12:59:40;99026.13;;;33.03;93.32
7026;BME280;3554;42.132;24.786;2023-06-24T13:02:07;99015.03;;;33.17;91.78
7026;BME280;3554;42.132;24.786;2023-06-24T13:04:36;99008.00;;;33.03;95.47
7026;BME280;3554;42.132;24.786;2023-06-24T13:07:02;98998.81;;;32.85;95.22
7026;BME280;3554;42.132;24.786;2023-06-24T13:09:30;98994.06;;;32.93;95.54